PST,Max TemperatureF,Mean TemperatureF,Min TemperatureF,Max Dew PointF,MeanDew PointF,Min DewpointF,Max Humidity, Mean Humidity, Min Humidity, Max Sea Level PressureIn, Mean Sea Level PressureIn, Min Sea Level PressureIn, Max VisibilityMiles, Mean VisibilityMiles, Min VisibilityMiles, Max Wind SpeedMPH, Mean Wind SpeedMPH, Max Gust SpeedMPH,PrecipitationIn, CloudCover, Events, WindDirDegrees
2012-12-1,51,49,46,47,44,42,93,82,71,29.63,29.50,29.27,10,9,3,26,13,40,0.43,7,Rain,190
2012-12-2,47,45,43,45,44,41,93,90,86,29.82,29.54,29.20,10,8,3,20,11,26,1.03,7,Rain,199
2012-12-3,50,48,45,48,45,43,100,93,86,30.00,29.90,29.64,10,7,2,16,9,22,0.69,8,Rain,190
2012-12-4,51,48,44,49,46,41,100,93,86,29.90,29.72,29.55,10,8,2,17,9,24,0.57,8,Rain,202
2012-12-5,48,41,34,41,38,34,96,84,71,30.23,30.16,29.95,10,10,8,21,6,29,0.01,4,,210
2012-12-6,45,42,38,43,40,38,100,95,89,30.20,30.14,30.09,10,8,3,15,7,20,0.46,7,Rain,210
2012-12-7,46,43,40,45,39,33,100,83,65,30.19,30.08,30.02,10,9,2,20,9,25,0.32,7,Rain,215
2012-12-8,45,41,37,38,36,35,92,81,70,30.36,30.27,30.19,10,10,8,14,6,18,T,6,Rain,211
2012-12-9,45,41,36,45,41,36,100,95,89,30.38,30.34,30.27,10,4,1,14,5,17,0.16,8,Rain,216
2012-12-10,47,43,39,45,42,39,100,95,89,30.43,30.35,30.14,10,4,1,10,3,13,0.03,8,Rain,249
2012-12-11,45,43,40,42,40,37,100,95,89,30.08,29.77,29.55,10,8,4,25,9,37,0.15,7,Rain,206
2012-12-12,44,39,34,40,38,34,100,88,76,30.04,29.86,29.65,10,8,2,12,4,15,0.00,7,Fog,194
2012-12-13,44,41,38,39,38,36,100,88,76,30.06,29.96,29.82,10,6,2,12,5,15,0.16,8,Fog-Rain,203
2012-12-14,44,37,30,38,35,30,100,88,76,29.96,29.89,29.78,10,5,0,14,3,20,0.05,7,Fog-Rain,209
2012-12-15,40,35,30,36,34,30,100,93,85,29.91,29.75,29.54,10,8,1,24,7,34,0.18,6,Rain,206
2012-12-16,46,40,34,43,38,33,100,95,89,29.78,29.44,28.96,10,7,2,28,10,35,1.18,8,Rain,186
2012-12-17,46,39,32,43,35,32,96,86,76,29.92,29.70,28.93,10,6,1,25,12,36,0.66,7,Rain-Snow,209
2012-12-18,36,34,32,33,32,31,100,95,89,30.00,29.94,29.89,10,7,1,15,9,19,0.26,8,Snow,202
2012-12-19,42,39,35,40,36,32,93,86,79,29.96,29.71,29.53,10,8,3,30,17,43,1.18,8,Rain,186
2012-12-20,46,37,27,41,35,27,93,88,83,29.83,29.68,29.49,10,6,0,29,12,37,0.67,5,Fog-Rain,200
2012-12-21,46,36,26,39,32,26,100,88,76,29.81,29.75,29.65,10,4,0,16,4,20,0.07,6,Fog-Rain,150
2012-12-22,46,41,36,40,38,37,100,86,71,29.73,29.59,29.50,10,7,1,28,10,37,0.16,7,Rain,194
2012-12-23,42,39,35,39,37,35,100,88,76,29.84,29.72,29.64,10,8,4,20,6,29,0.26,7,Rain,198
2012-12-24,44,39,33,41,36,33,100,90,79,30.16,30.06,29.86,10,6,0,13,4,16,0.04,5,Fog-Rain,199
2012-12-25,37,35,32,37,35,32,100,98,96,30.03,29.74,29.66,7,3,0,7,2,10,0.62,8,Fog-Rain-Snow,347
2012-12-26,44,40,35,41,38,35,100,95,89,29.94,29.78,29.70,10,6,1,16,8,19,0.16,8,Rain,198
2012-12-27,47,42,36,40,39,36,100,92,83,30.17,30.09,29.95,10,10,4,15,7,19,0.02,7,Rain,210
2012-12-28,44,39,33,39,36,34,100,91,82,30.17,30.14,30.11,10,5,0,6,1,6,T,7,Fog-Rain,154
2012-12-29,41,37,33,37,35,33,100,93,85,30.24,30.18,30.15,10,6,0,9,3,12,0.04,8,Fog-Rain,210
2012-12-30,43,36,28,37,35,28,100,88,76,30.32,30.28,30.23,10,3,0,7,1,8,T,7,Fog-Rain,193
2012-12-31,34,31,28,34,32,29,100,95,89,30.45,30.35,30.26,10,3,0,8,2,11,0.12,6,Fog-Snow,204